Time;durP1;ratioP1;P1;durP2;ratioP2;P2;SDS_P1;SDS_P2;PMS_P1;PMS_P2;Temp;Humidity;BMP_temperature;BMP_pressure;BME280_temperature;BME280_humidity;BME280_pressure;Samples;Min_cycle;Max_cycle;Signal;HPM_P1;HPM_P2
2023/09/10 00:02:00;;;;;;;10.67;6.83;;;;;;;;;;4998334;28;20034;-75
2023/09/10 00:04:26;;;;;;;12.25;7.10;;;;;;;;;;4981140;28;20262;-75
2023/09/10 00:06:53;;;;;;;10.10;7.25;;;;;;;;;;4998585;28;20081;-75
2023/09/10 00:09:18;;;;;;;11.95;6.78;;;;;;;;;;4980545;28;20057;-75
2023/09/10 00:11:43;;;;;;;9.20;6.93;;;;;;;;;;4998076;28;20023;-75
2023/09/10 00:14:09;;;;;;;10.45;7.18;;;;;;;;;;4997808;28;20292;-75
2023/09/10 00:16:34;;;;;;;13.27;7.30;;;;;;;;;;4998587;28;20085;-75
2023/09/10 00:18:59;;;;;;;9.77;7.07;;;;;;;;;;4998547;28;20029;-75
2023/09/10 00:21:24;;;;;;;11.88;7.13;;;;;;;;;;4998364;28;20256;-75
2023/09/10 00:23:50;;;;;;;11.82;7.40;;;;;;;;;;4998112;28;20370;-75
2023/09/10 00:26:15;;;;;;;10.93;6.70;;;;;;;;;;4997770;28;20026;-75
2023/09/10 00:28:41;;;;;;;11.27;7.00;;;;;;;;;;4998446;28;20264;-75
2023/09/10 00:31:07;;;;;;;12.90;7.25;;;;;;;;;;4998026;28;20438;-75
2023/09/10 00:33:33;;;;;;;12.68;7.55;;;;;;;;;;4980317;28;20392;-75
2023/09/10 00:35:58;;;;;;;11.13;6.95;;;;;;;;;;4997906;28;20038;-75
2023/09/10 00:38:25;;;;;;;8.65;6.53;;;;;;;;;;4998243;28;20023;-75
2023/09/10 00:40:50;;;;;;;10.77;7.28;;;;;;;;;;4997782;28;20030;-75
2023/09/10 00:43:15;;;;;;;10.95;7.75;;;;;;;;;;4980054;28;20087;-75
2023/09/10 00:45:41;;;;;;;13.27;7.53;;;;;;;;;;4998491;28;20465;-75
2023/09/10 00:48:06;;;;;;;10.85;7.10;;;;;;;;;;4997476;28;20275;-75
2023/09/10 00:50:32;;;;;;;10.88;7.10;;;;;;;;;;4997288;28;20030;-74
2023/09/10 00:52:59;;;;;;;12.25;7.45;;;;;;;;;;4997108;28;20035;-75
2023/09/10 00:55:26;;;;;;;15.23;7.75;;;;;;;;;;4997065;28;20485;-75
2023/09/10 00:57:52;;;;;;;12.88;7.85;;;;;;;;;;4997294;28;20038;-76
2023/09/10 01:00:18;;;;;;;15.27;8.52;;;;;;;;;;4997276;28;20035;-75
2023/09/10 01:02:44;;;;;;;15.85;8.35;;;;;;;;;;4979095;28;20412;-75
2023/09/10 01:05:11;;;;;;;13.15;8.15;;;;;;;;;;4996734;28;20033;-75
2023/09/10 01:07:37;;;;;;;13.48;8.45;;;;;;;;;;4996849;28;20030;-75
2023/09/10 01:10:04;;;;;;;12.05;8.30;;;;;;;;;;4996926;28;20027;-75
2023/09/10 01:12:35;;;;;;;15.18;8.73;;;;;;;;;;4997158;28;20033;-75
2023/09/10 01:15:13;;;;;;;14.40;7.82;;;;;;;;;;4978575;28;20056;-76
2023/09/10 01:17:58;;;;;;;16.48;7.15;;;;;;;;;;4996008;28;20034;-75
2023/09/10 01:20:45;;;;;;;11.52;7.30;;;;;;;;;;4996206;28;20109;-75
2023/09/10 01:23:17;;;;;;;13.23;7.78;;;;;;;;;;4978671;28;20018;-75
2023/09/10 01:25:43;;;;;;;10.93;6.75;;;;;;;;;;4994650;28;20026;-75
2023/09/10 01:28:08;;;;;;;9.75;6.72;;;;;;;;;;4978902;28;20452;-75
2023/09/10 01:30:34;;;;;;;12.18;7.13;;;;;;;;;;4996118;28;20080;-75
2023/09/10 01:33:11;;;;;;;9.68;6.75;;;;;;;;;;4996784;28;20082;-75
2023/09/10 01:35:53;;;;;;;13.48;7.32;;;;;;;;;;4995847;28;20025;-75
2023/09/10 01:38:31;;;;;;;9.98;6.95;;;;;;;;;;4996157;28;20033;-75
2023/09/10 01:41:03;;;;;;;11.13;6.43;;;;;;;;;;4978816;28;20061;-75
2023/09/10 01:43:30;;;;;;;9.05;6.70;;;;;;;;;;4995715;28;20370;-75
2023/09/10 01:45:56;;;;;;;10.00;6.82;;;;;;;;;;4995179;28;20022;-75
2023/09/10 01:48:21;;;;;;;9.38;6.40;;;;;;;;;;4995946;28;20041;-75
2023/09/10 01:50:47;;;;;;;10.60;7.15;;;;;;;;;;4995138;28;20488;-75
2023/09/10 01:53:14;;;;;;;14.52;6.75;;;;;;;;;;4995191;28;20034;-75
2023/09/10 01:55:39;;;;;;;13.10;6.78;;;;;;;;;;4978013;28;20041;-75
2023/09/10 01:58:04;;;;;;;14.70;6.70;;;;;;;;;;4995782;28;20465;-75
2023/09/10 02:00:30;;;;;;;10.68;6.30;;;;;;;;;;4995288;28;20264;-75
2023/09/10 02:02:55;;;;;;;12.13;6.28;;;;;;;;;;4996049;28;20022;-75
2023/09/10 02:05:20;;;;;;;8.53;6.20;;;;;;;;;;4995962;28;20054;-75
2023/09/10 02:07:45;;;;;;;9.98;6.22;;;;;;;;;;4995959;28;20314;-75
2023/09/10 02:10:11;;;;;;;9.23;6.10;;;;;;;;;;4978866;28;20430;-75
2023/09/10 02:12:36;;;;;;;9.67;5.63;;;;;;;;;;4977792;28;20018;-75
2023/09/10 02:15:07;;;;;;;9.63;6.13;;;;;;;;;;4995139;28;20321;-75
2023/09/10 02:17:32;;;;;;;7.63;5.85;;;;;;;;;;4996323;28;20382;-75
2023/09/10 02:19:57;;;;;;;10.45;6.20;;;;;;;;;;4978175;28;20030;-75
2023/09/10 02:22:22;;;;;;;8.20;6.07;;;;;;;;;;4977561;28;20034;-75
2023/09/10 02:24:50;;;;;;;9.53;6.13;;;;;;;;;;4995033;28;20713;-75
2023/09/10 02:27:16;;;;;;;8.00;5.93;;;;;;;;;;4977785;28;20275;-75
2023/09/10 02:29:41;;;;;;;8.98;5.97;;;;;;;;;;4994906;28;20026;-75
2023/09/10 02:32:06;;;;;;;7.87;6.17;;;;;;;;;;4994835;28;20022;-75
2023/09/10 02:34:32;;;;;;;8.13;5.97;;;;;;;;;;4994614;28;20287;-75
2023/09/10 02:36:59;;;;;;;11.07;6.43;;;;;;;;;;4994100;28;20270;-75
2023/09/10 02:39:24;;;;;;;8.15;6.20;;;;;;;;;;4995365;28;20023;-75
2023/09/10 02:41:49;;;;;;;13.90;6.40;;;;;;;;;;4995176;28;20105;-75
2023/09/10 02:44:15;;;;;;;8.98;6.10;;;;;;;;;;4995563;28;20255;-75
2023/09/10 02:46:40;;;;;;;9.85;5.88;;;;;;;;;;4977981;28;20026;-75
2023/09/10 02:49:05;;;;;;;9.27;5.70;;;;;;;;;;4995120;28;20045;-75
2023/09/10 02:51:30;;;;;;;9.55;5.63;;;;;;;;;;4995019;28;20026;-75
2023/09/10 02:53:56;;;;;;;8.23;6.10;;;;;;;;;;4994566;28;20397;-75
2023/09/10 02:56:21;;;;;;;7.80;5.60;;;;;;;;;;4995165;28;20068;-75
2023/09/10 02:58:46;;;;;;;11.40;5.90;;;;;;;;;;4994532;28;20022;-75
2023/09/10 03:01:11;;;;;;;11.30;5.90;;;;;;;;;;4995140;28;20041;-74
2023/09/10 03:03:37;;;;;;;8.35;6.18;;;;;;;;;;4995463;28;20252;-75
2023/09/10 03:06:11;;;;;;;9.90;6.13;;;;;;;;;;4977758;28;20092;-75
2023/09/10 03:08:36;;;;;;;12.40;6.63;;;;;;;;;;4995385;28;20036;-75
2023/09/10 03:11:03;;;;;;;8.73;5.67;;;;;;;;;;4995075;28;20109;-76
2023/09/10 03:13:29;;;;;;;9.45;5.93;;;;;;;;;;4994546;28;20311;-75
2023/09/10 03:15:54;;;;;;;7.57;5.77;;;;;;;;;;4994959;28;20026;-75
2023/09/10 03:18:19;;;;;;;10.35;5.88;;;;;;;;;;4994634;28;20319;-76
2023/09/10 03:20:45;;;;;;;9.13;5.65;;;;;;;;;;4994623;28;20102;-75
2023/09/10 03:23:10;;;;;;;8.63;5.97;;;;;;;;;;4994569;28;20026;-75
2023/09/10 03:25:39;;;;;;;9.00;6.30;;;;;;;;;;4977270;28;20777;-75
2023/09/10 03:28:05;;;;;;;8.25;5.60;;;;;;;;;;4995036;28;20405;-75
2023/09/10 03:30:30;;;;;;;13.10;6.13;;;;;;;;;;4977958;28;20026;-76
2023/09/10 03:32:56;;;;;;;10.93;6.47;;;;;;;;;;4994695;28;20036;-76
2023/09/10 03:35:21;;;;;;;9.90;5.88;;;;;;;;;;4977480;28;20026;-76
2023/09/10 03:37:46;;;;;;;9.70;6.20;;;;;;;;;;4994827;28;20030;-76
2023/09/10 03:40:11;;;;;;;10.75;5.78;;;;;;;;;;4995122;28;20260;-75
2023/09/10 03:42:37;;;;;;;8.15;5.80;;;;;;;;;;4994975;28;20034;-76
2023/09/10 03:45:02;;;;;;;8.02;6.10;;;;;;;;;;4979062;28;20552;-76
2023/09/10 03:47:29;;;;;;;9.43;6.00;;;;;;;;;;4980133;28;20038;-76
2023/09/10 03:49:54;;;;;;;9.82;5.95;;;;;;;;;;4997480;28;20022;-76
2023/09/10 03:52:21;;;;;;;9.30;6.13;;;;;;;;;;4980332;28;20122;-76
2023/09/10 03:54:47;;;;;;;7.63;5.85;;;;;;;;;;4979920;28;20049;-75
2023/09/10 03:57:13;;;;;;;10.70;5.90;;;;;;;;;;4980202;28;20600;-76
2023/09/10 03:59:38;;;;;;;12.10;6.10;;;;;;;;;;4997853;28;20149;-75
2023/09/10 04:02:04;;;;;;;8.85;5.65;;;;;;;;;;4997549;28;20049;-75
2023/09/10 04:04:29;;;;;;;7.63;5.60;;;;;;;;;;4997639;28;20126;-75
2023/09/10 04:06:54;;;;;;;10.07;5.95;;;;;;;;;;4996946;28;20477;-75
2023/09/10 04:09:20;;;;;;;10.38;5.60;;;;;;;;;;4996981;28;20038;-75
2023/09/10 04:11:45;;;;;;;7.80;5.95;;;;;;;;;;4997280;28;20026;-74
2023/09/10 04:14:10;;;;;;;10.25;6.13;;;;;;;;;;4979602;28;20034;-75
2023/09/10 04:16:35;;;;;;;8.90;5.97;;;;;;;;;;4997066;28;20045;-75
2023/09/10 04:19:01;;;;;;;8.27;5.70;;;;;;;;;;4979660;28;20060;-76
2023/09/10 04:21:26;;;;;;;8.70;6.17;;;;;;;;;;4979627;28;20255;-75
2023/09/10 04:23:51;;;;;;;10.10;6.28;;;;;;;;;;4997219;28;20260;-74
2023/09/10 04:26:17;;;;;;;8.88;6.35;;;;;;;;;;4979756;28;20033;-76
2023/09/10 04:28:42;;;;;;;10.20;5.97;;;;;;;;;;4979681;28;20030;-75
2023/09/10 04:31:13;;;;;;;10.52;5.90;;;;;;;;;;4979641;28;20111;-75
2023/09/10 04:33:38;;;;;;;8.30;6.20;;;;;;;;;;4980073;28;20377;-75
2023/09/10 04:36:04;;;;;;;7.90;6.07;;;;;;;;;;4996832;28;20037;-75
2023/09/10 04:38:29;;;;;;;11.63;6.38;;;;;;;;;;4996903;28;20330;-76
2023/09/10 04:40:55;;;;;;;11.18;6.43;;;;;;;;;;4980228;28;20022;-75
2023/09/10 04:43:20;;;;;;;7.40;5.70;;;;;;;;;;4980350;28;20113;-75
2023/09/10 04:45:46;;;;;;;8.90;6.40;;;;;;;;;;4998002;28;20477;-75
2023/09/10 04:48:12;;;;;;;9.00;5.93;;;;;;;;;;4998012;28;20504;-75
2023/09/10 04:50:38;;;;;;;11.45;6.10;;;;;;;;;;4997906;28;20034;-75
2023/09/10 04:53:04;;;;;;;8.45;5.63;;;;;;;;;;4997662;28;20080;-75
2023/09/10 04:55:29;;;;;;;7.68;5.47;;;;;;;;;;4996757;28;20379;-75
2023/09/10 04:57:54;;;;;;;7.70;5.70;;;;;;;;;;4980394;28;20096;-75
2023/09/10 05:00:20;;;;;;;7.57;5.32;;;;;;;;;;4997528;28;20030;-75
2023/09/10 05:02:45;;;;;;;8.05;5.88;;;;;;;;;;4996844;28;20022;-75
2023/09/10 05:05:10;;;;;;;15.25;5.90;;;;;;;;;;4996735;28;20037;-75
2023/09/10 05:07:35;;;;;;;9.60;5.75;;;;;;;;;;4979154;28;20030;-75
2023/09/10 05:10:00;;;;;;;10.57;5.20;;;;;;;;;;4996448;28;20397;-75
2023/09/10 05:12:26;;;;;;;7.70;5.60;;;;;;;;;;4979505;28;20026;-75
2023/09/10 05:14:51;;;;;;;9.17;5.80;;;;;;;;;;4996374;28;20026;-75
2023/09/10 05:17:16;;;;;;;7.60;5.50;;;;;;;;;;4996859;28;20737;-75
2023/09/10 05:19:43;;;;;;;10.93;6.40;;;;;;;;;;4996513;28;20639;-75
2023/09/10 05:22:08;;;;;;;8.05;5.47;;;;;;;;;;4979004;28;20086;-75
2023/09/10 05:24:33;;;;;;;11.18;5.55;;;;;;;;;;4996565;28;20520;-75
2023/09/10 05:26:58;;;;;;;8.50;5.57;;;;;;;;;;4979221;28;20022;-75
2023/09/10 05:29:26;;;;;;;8.93;6.00;;;;;;;;;;4996683;28;20343;-75
2023/09/10 05:31:51;;;;;;;11.38;6.28;;;;;;;;;;4996084;28;20267;-75
2023/09/10 05:34:17;;;;;;;7.57;5.72;;;;;;;;;;4978627;28;20023;-75
2023/09/10 05:36:42;;;;;;;10.40;5.63;;;;;;;;;;4978900;28;20057;-75
2023/09/10 05:39:07;;;;;;;11.35;5.75;;;;;;;;;;4996024;28;20054;-75
2023/09/10 05:41:33;;;;;;;8.55;6.18;;;;;;;;;;4978889;28;20117;-75
2023/09/10 05:43:58;;;;;;;8.43;6.28;;;;;;;;;;4979324;28;20036;-75
2023/09/10 05:46:23;;;;;;;15.07;6.90;;;;;;;;;;4979620;28;20022;-75
2023/09/10 05:48:49;;;;;;;11.05;5.95;;;;;;;;;;4996525;28;20822;-75
2023/09/10 05:51:14;;;;;;;11.75;5.85;;;;;;;;;;4979108;28;20026;-75
2023/09/10 05:53:42;;;;;;;11.48;5.90;;;;;;;;;;4996500;28;20049;-75
2023/09/10 05:56:07;;;;;;;7.78;5.40;;;;;;;;;;4978823;28;20030;-75
2023/09/10 05:58:33;;;;;;;9.48;5.07;;;;;;;;;;4996073;28;20037;-75
2023/09/10 06:00:58;;;;;;;10.10;5.47;;;;;;;;;;4995707;28;20062;-76
2023/09/10 06:03:23;;;;;;;7.75;5.30;;;;;;;;;;4994798;28;20022;-75
2023/09/10 06:05:49;;;;;;;8.18;5.80;;;;;;;;;;4994323;28;20026;-75
2023/09/10 06:08:14;;;;;;;10.65;5.72;;;;;;;;;;4994866;28;20034;-75
2023/09/10 06:10:39;;;;;;;8.38;5.45;;;;;;;;;;4995987;28;20034;-75
2023/09/10 06:13:05;;;;;;;7.53;5.50;;;;;;;;;;4977936;28;20121;-75
2023/09/10 06:15:30;;;;;;;10.02;5.55;;;;;;;;;;4995617;28;20109;-73
2023/09/10 06:17:55;;;;;;;6.78;5.22;;;;;;;;;;4996034;28;20385;-75
2023/09/10 06:20:21;;;;;;;11.73;5.63;;;;;;;;;;4995741;28;20034;-75
2023/09/10 06:22:46;;;;;;;8.32;4.78;;;;;;;;;;4995441;28;20389;-75
2023/09/10 06:25:11;;;;;;;7.97;5.47;;;;;;;;;;4995680;28;20129;-75
2023/09/10 06:27:36;;;;;;;7.00;5.40;;;;;;;;;;4996019;28;20263;-74
2023/09/10 06:30:03;;;;;;;8.20;5.50;;;;;;;;;;4996035;28;20259;-75
2023/09/10 06:32:28;;;;;;;7.60;5.13;;;;;;;;;;4995855;28;20058;-74
2023/09/10 06:34:53;;;;;;;9.48;5.68;;;;;;;;;;4978473;28;20030;-75
2023/09/10 06:37:18;;;;;;;9.97;5.60;;;;;;;;;;4977841;28;20477;-75
2023/09/10 06:39:44;;;;;;;9.77;5.28;;;;;;;;;;4995681;28;20564;-74
2023/09/10 06:42:11;;;;;;;8.60;5.05;;;;;;;;;;4994963;28;20031;-74
2023/09/10 06:44:38;;;;;;;9.23;5.43;;;;;;;;;;4977767;28;20504;-75
2023/09/10 06:47:03;;;;;;;9.15;5.57;;;;;;;;;;4995108;28;20031;-74
2023/09/10 06:49:29;;;;;;;7.90;5.30;;;;;;;;;;4995382;28;20076;-75
2023/09/10 06:51:54;;;;;;;7.33;5.13;;;;;;;;;;4994926;28;20054;-74
2023/09/10 06:54:19;;;;;;;7.82;5.35;;;;;;;;;;4994421;28;20292;-74
2023/09/10 06:56:44;;;;;;;7.90;4.97;;;;;;;;;;4994426;28;20044;-74
2023/09/10 06:59:10;;;;;;;10.60;5.10;;;;;;;;;;4995360;28;20030;-74
2023/09/10 07:01:37;;;;;;;10.57;5.40;;;;;;;;;;4994682;28;20259;-73
2023/09/10 07:04:15;;;;;;;8.27;5.18;;;;;;;;;;4994789;28;20309;-75
2023/09/10 07:06:40;;;;;;;8.88;5.50;;;;;;;;;;4995382;28;20109;-74
2023/09/10 07:09:05;;;;;;;7.43;4.97;;;;;;;;;;4995045;28;20058;-75
2023/09/10 07:11:31;;;;;;;9.80;4.88;;;;;;;;;;4994745;28;20263;-76
2023/09/10 07:13:56;;;;;;;8.77;5.32;;;;;;;;;;4995333;28;20038;-74
2023/09/10 07:16:23;;;;;;;6.83;5.20;;;;;;;;;;4994666;28;20049;-75
2023/09/10 07:18:48;;;;;;;7.45;5.00;;;;;;;;;;4995205;28;20731;-74
2023/09/10 07:21:13;;;;;;;8.43;4.97;;;;;;;;;;4980765;28;20084;-73
2023/09/10 07:23:38;;;;;;;7.82;5.00;;;;;;;;;;4998502;28;20267;-74
2023/09/10 07:26:04;;;;;;;7.33;5.33;;;;;;;;;;4998850;28;20026;-74
2023/09/10 07:28:29;;;;;;;9.23;4.72;;;;;;;;;;4981284;28;20375;-73
2023/09/10 07:30:54;;;;;;;8.73;5.25;;;;;;;;;;4998818;28;20401;-73
2023/09/10 07:33:19;;;;;;;9.47;5.17;;;;;;;;;;4998932;28;20112;-74
2023/09/10 07:35:45;;;;;;;7.70;5.00;;;;;;;;;;4981201;28;20259;-75
2023/09/10 07:38:10;;;;;;;9.60;5.23;;;;;;;;;;4998638;28;20751;-74
2023/09/10 07:40:35;;;;;;;10.02;5.47;;;;;;;;;;4999191;28;20331;-74
2023/09/10 07:43:02;;;;;;;8.32;5.43;;;;;;;;;;4999306;28;20030;-74
2023/09/10 07:45:28;;;;;;;9.80;4.72;;;;;;;;;;4999458;28;20050;-74
2023/09/10 07:47:54;;;;;;;7.80;5.25;;;;;;;;;;4981486;28;20022;-74
2023/09/10 07:50:19;;;;;;;6.88;4.82;;;;;;;;;;4999685;28;20065;-74
2023/09/10 07:52:44;;;;;;;7.10;5.03;;;;;;;;;;4998663;28;20036;-74
2023/09/10 07:55:10;;;;;;;9.45;4.90;;;;;;;;;;4998589;28;20375;-74
2023/09/10 07:57:35;;;;;;;8.98;4.95;;;;;;;;;;4981861;28;20048;-74
2023/09/10 08:00:01;;;;;;;8.88;4.85;;;;;;;;;;4998872;28;20117;-74
2023/09/10 08:02:27;;;;;;;7.05;4.70;;;;;;;;;;4999199;28;20185;-74
2023/09/10 08:04:53;;;;;;;10.32;5.30;;;;;;;;;;4998659;28;20070;-74
2023/09/10 08:07:19;;;;;;;7.10;4.90;;;;;;;;;;4998685;28;20474;-75
2023/09/10 08:09:44;;;;;;;7.95;4.80;;;;;;;;;;4999850;28;20029;-78
2023/09/10 08:12:09;;;;;;;8.05;5.10;;;;;;;;;;4999181;28;20026;-76
2023/09/10 08:14:35;;;;;;;7.40;4.60;;;;;;;;;;5000176;28;20057;-78
2023/09/10 08:17:01;;;;;;;8.55;5.25;;;;;;;;;;5001554;28;20310;-77
2023/09/10 08:19:26;;;;;;;8.25;5.30;;;;;;;;;;4983535;28;20026;-77
2023/09/10 08:21:52;;;;;;;6.93;4.43;;;;;;;;;;5001589;28;20022;-79
2023/09/10 08:24:17;;;;;;;9.75;4.90;;;;;;;;;;5001763;28;20275;-78
2023/09/10 08:26:42;;;;;;;11.95;4.88;;;;;;;;;;4985733;28;20081;-79
2023/09/10 08:29:08;;;;;;;7.10;4.87;;;;;;;;;;5002896;28;20030;-78
2023/09/10 08:31:33;;;;;;;8.80;4.90;;;;;;;;;;5001356;28;20298;-78
2023/09/10 08:33:58;;;;;;;8.93;4.85;;;;;;;;;;4983437;28;20038;-77
2023/09/10 08:36:23;;;;;;;8.17;4.70;;;;;;;;;;4981202;28;20086;-78
2023/09/10 08:38:49;;;;;;;8.60;5.53;;;;;;;;;;4998702;28;20264;-77
2023/09/10 08:41:27;;;;;;;11.75;5.10;;;;;;;;;;5001064;28;20256;-78
2023/09/10 08:43:58;;;;;;;8.40;5.10;;;;;;;;;;5001258;28;20080;-79
2023/09/10 08:46:30;;;;;;;9.40;5.38;;;;;;;;;;5001491;28;20046;-77
2023/09/10 08:48:59;;;;;;;8.10;5.50;;;;;;;;;;5001909;28;20030;-79
2023/09/10 08:51:25;;;;;;;7.18;4.60;;;;;;;;;;4984198;28;20031;-78
2023/09/10 08:53:53;;;;;;;7.28;4.80;;;;;;;;;;5002079;28;20026;-79
2023/09/10 08:56:19;;;;;;;6.93;4.80;;;;;;;;;;5002266;28;20030;-78
2023/09/10 08:58:47;;;;;;;7.38;4.57;;;;;;;;;;5002097;28;20026;-79
2023/09/10 09:01:13;;;;;;;8.57;4.57;;;;;;;;;;5000897;28;20432;-78
2023/09/10 09:03:38;;;;;;;11.88;5.00;;;;;;;;;;5000980;28;20113;-79
2023/09/10 09:06:05;;;;;;;8.10;4.80;;;;;;;;;;5001505;28;20053;-79
2023/09/10 09:08:32;;;;;;;6.32;4.57;;;;;;;;;;4984123;28;20075;-79
2023/09/10 09:11:03;;;;;;;7.30;4.55;;;;;;;;;;5000626;28;20030;-79
2023/09/10 09:13:32;;;;;;;7.22;4.63;;;;;;;;;;4983484;28;20088;-78
2023/09/10 09:15:59;;;;;;;5.63;4.15;;;;;;;;;;4983675;28;20038;-79
2023/09/10 09:18:26;;;;;;;7.55;4.75;;;;;;;;;;4984072;28;20029;-79
2023/09/10 09:20:52;;;;;;;7.40;4.97;;;;;;;;;;5001683;28;20481;-78
2023/09/10 09:23:32;;;;;;;5.85;4.40;;;;;;;;;;5001977;28;20492;-78
2023/09/10 09:25:58;;;;;;;6.38;4.57;;;;;;;;;;5002215;28;20054;-80
2023/09/10 09:28:25;;;;;;;5.88;4.32;;;;;;;;;;5001741;28;20438;-77
2023/09/10 09:30:51;;;;;;;12.70;5.10;;;;;;;;;;5001142;28;20034;-79
2023/09/10 09:33:16;;;;;;;6.63;4.55;;;;;;;;;;4982794;28;20023;-78
2023/09/10 09:35:43;;;;;;;6.53;4.28;;;;;;;;;;4998659;28;20026;-77
2023/09/10 09:38:10;;;;;;;7.32;4.15;;;;;;;;;;4982837;28;20026;-78
2023/09/10 09:40:36;;;;;;;11.38;5.25;;;;;;;;;;4982084;28;20030;-79
2023/09/10 09:43:01;;;;;;;7.90;4.80;;;;;;;;;;4997673;28;20102;-76
2023/09/10 09:45:27;;;;;;;7.35;4.47;;;;;;;;;;4996451;28;20036;-77
2023/09/10 09:47:53;;;;;;;6.50;4.30;;;;;;;;;;4996386;28;20022;-77
2023/09/10 09:50:19;;;;;;;13.43;5.65;;;;;;;;;;4996156;28;20049;-76
2023/09/10 09:52:52;;;;;;;6.47;4.32;;;;;;;;;;4996515;28;20026;-77
2023/09/10 09:55:17;;;;;;;8.90;4.53;;;;;;;;;;4998243;28;20059;-77
2023/09/10 09:57:46;;;;;;;11.15;5.55;;;;;;;;;;4995730;28;20157;-77
2023/09/10 10:00:12;;;;;;;8.95;5.40;;;;;;;;;;4995212;28;20060;-76
2023/09/10 10:02:37;;;;;;;7.88;4.45;;;;;;;;;;4979205;28;20030;-77
2023/09/10 10:05:03;;;;;;;7.40;4.55;;;;;;;;;;4996986;28;20025;-77
2023/09/10 10:07:29;;;;;;;5.18;4.20;;;;;;;;;;4996554;28;20481;-77
2023/09/10 10:09:57;;;;;;;11.15;4.75;;;;;;;;;;4996216;28;20085;-77
2023/09/10 10:12:23;;;;;;;9.02;4.35;;;;;;;;;;4979059;28;20062;-76
2023/09/10 10:14:49;;;;;;;8.65;4.35;;;;;;;;;;4978795;28;20029;-77
2023/09/10 10:17:16;;;;;;;12.68;5.72;;;;;;;;;;4995812;28;20026;-77
2023/09/10 10:19:42;;;;;;;9.70;5.00;;;;;;;;;;4978143;28;20080;-77
2023/09/10 10:22:08;;;;;;;12.60;5.22;;;;;;;;;;4995451;28;20026;-77
2023/09/10 10:24:34;;;;;;;6.60;3.97;;;;;;;;;;4995459;28;20018;-77
2023/09/10 10:27:01;;;;;;;9.43;5.10;;;;;;;;;;4996656;28;20030;-77
2023/09/10 10:29:27;;;;;;;6.57;4.10;;;;;;;;;;4997686;28;20030;-77
2023/09/10 10:32:00;;;;;;;6.85;4.43;;;;;;;;;;4978658;28;20076;-77
2023/09/10 10:34:27;;;;;;;11.77;7.30;;;;;;;;;;4996062;28;20030;-77
2023/09/10 10:37:12;;;;;;;10.43;4.85;;;;;;;;;;4981781;28;20125;-79
2023/09/10 10:39:45;;;;;;;7.95;5.18;;;;;;;;;;4989804;28;20042;-79
2023/09/10 10:42:15;;;;;;;5.53;3.85;;;;;;;;;;4999605;28;20037;-78
2023/09/10 10:44:42;;;;;;;7.65;3.67;;;;;;;;;;4998610;28;20494;-78
2023/09/10 10:47:19;;;;;;;7.22;4.03;;;;;;;;;;4997448;28;20030;-78
2023/09/10 10:49:52;;;;;;;5.65;3.75;;;;;;;;;;4984642;28;20026;-78
2023/09/10 10:52:20;;;;;;;;;;;;;;;;;;4984944;28;20026;-78
2023/09/10 10:54:49;;;;;;;8.00;4.20;;;;;;;;;;5004164;28;19918;-77
2023/09/10 10:57:15;;;;;;;7.70;4.00;;;;;;;;;;5006365;28;20033;-78
2023/09/10 10:59:41;;;;;;;6.95;4.15;;;;;;;;;;4988726;28;20121;-78
2023/09/10 11:02:21;;;;;;;6.93;4.00;;;;;;;;;;5005298;28;20030;-79
2023/09/10 11:05:00;;;;;;;5.15;3.83;;;;;;;;;;4991270;28;20058;-78
2023/09/10 11:07:29;;;;;;;5.78;4.22;;;;;;;;;;5006920;28;20030;-77
2023/09/10 11:10:27;;;;;;;8.73;4.20;;;;;;;;;;5007024;28;20037;-78
2023/09/10 11:13:08;;;;;;;7.05;3.90;;;;;;;;;;5005353;28;20056;-77
2023/09/10 11:15:33;;;;;;;6.10;3.83;;;;;;;;;;4987642;28;20027;-78
2023/09/10 11:18:37;;;;;;;5.32;4.13;;;;;;;;;;5004708;28;20041;-78
2023/09/10 11:21:09;;;;;;;5.83;4.10;;;;;;;;;;5003857;28;20026;-78
2023/09/10 11:23:37;;;;;;;5.07;3.60;;;;;;;;;;5004615;28;20021;-78
2023/09/10 11:26:14;;;;;;;7.35;3.90;;;;;;;;;;5005328;28;20023;-78
2023/09/10 11:28:50;;;;;;;7.82;4.07;;;;;;;;;;4987417;28;20365;-78
2023/09/10 11:31:38;;;;;;;5.53;4.25;;;;;;;;;;5004965;28;20555;-77
2023/09/10 11:34:31;;;;;;;6.35;3.65;;;;;;;;;;5005202;28;20524;-78
2023/09/10 11:37:04;;;;;;;5.47;3.90;;;;;;;;;;4985202;28;20508;-78
2023/09/10 11:39:31;;;;;;;9.37;3.83;;;;;;;;;;5002542;28;20031;-78
2023/09/10 11:41:58;;;;;;;5.13;3.75;;;;;;;;;;4999490;28;20038;-77
2023/09/10 11:44:24;;;;;;;10.50;4.03;;;;;;;;;;5000277;28;20085;-78
2023/09/10 11:46:51;;;;;;;7.50;4.13;;;;;;;;;;5000584;28;20026;-78
2023/09/10 11:49:17;;;;;;;4.18;3.63;;;;;;;;;;4982025;28;20507;-77
2023/09/10 11:51:48;;;;;;;4.70;3.78;;;;;;;;;;4998433;28;20109;-78
2023/09/10 11:54:16;;;;;;;10.60;4.20;;;;;;;;;;4999640;28;20046;-77
2023/09/10 11:57:03;;;;;;;7.32;3.72;;;;;;;;;;4998190;28;20481;-79
2023/09/10 11:59:30;;;;;;;5.90;4.10;;;;;;;;;;4978956;28;20030;-78
2023/09/10 12:01:56;;;;;;;7.15;3.65;;;;;;;;;;4994900;28;20022;-77
2023/09/10 12:04:32;;;;;;;5.60;3.92;;;;;;;;;;4976731;28;20022;-80
2023/09/10 12:06:58;;;;;;;12.55;4.75;;;;;;;;;;4995316;28;20030;-79
2023/09/10 12:09:24;;;;;;;6.43;4.10;;;;;;;;;;4997583;28;20080;-80
2023/09/10 12:11:52;;;;;;;6.07;4.03;;;;;;;;;;4996840;28;20030;-78
2023/09/10 12:14:18;;;;;;;7.70;3.65;;;;;;;;;;4996631;28;20169;-79
2023/09/10 12:16:44;;;;;;;6.50;3.58;;;;;;;;;;4997361;28;20065;-78
2023/09/10 12:19:10;;;;;;;6.45;4.15;;;;;;;;;;4997855;28;20023;-78
2023/09/10 12:21:35;;;;;;;6.45;4.45;;;;;;;;;;4998091;28;20042;-78
2023/09/10 12:24:01;;;;;;;6.72;3.83;;;;;;;;;;4997836;28;20030;-78
2023/09/10 12:26:26;;;;;;;9.27;4.30;;;;;;;;;;4997931;28;20413;-79
2023/09/10 12:28:51;;;;;;;5.55;4.25;;;;;;;;;;4998235;28;20072;-78
2023/09/10 12:31:17;;;;;;;5.10;3.80;;;;;;;;;;4998017;28;20384;-78
2023/09/10 12:33:42;;;;;;;7.32;3.78;;;;;;;;;;4997800;28;20469;-79
2023/09/10 12:36:07;;;;;;;7.90;4.30;;;;;;;;;;4997577;28;20122;-78
2023/09/10 12:38:32;;;;;;;5.37;3.83;;;;;;;;;;4980024;28;20319;-79
2023/09/10 12:40:58;;;;;;;5.70;3.65;;;;;;;;;;4997375;28;20361;-77
2023/09/10 12:43:24;;;;;;;9.85;3.70;;;;;;;;;;4997120;28;20022;-79
2023/09/10 12:45:52;;;;;;;5.35;4.00;;;;;;;;;;4980014;28;20392;-78
2023/09/10 12:48:18;;;;;;;5.03;3.80;;;;;;;;;;4997668;28;20035;-79
2023/09/10 12:50:45;;;;;;;5.55;3.88;;;;;;;;;;4997569;28;20074;-78
2023/09/10 12:53:10;;;;;;;7.85;3.95;;;;;;;;;;4980011;28;20031;-79
2023/09/10 12:55:36;;;;;;;5.13;3.78;;;;;;;;;;4997473;28;20040;-79
2023/09/10 12:58:02;;;;;;;5.10;3.83;;;;;;;;;;4997753;28;20492;-78
2023/09/10 13:00:28;;;;;;;5.18;4.32;;;;;;;;;;4979906;28;20471;-78
2023/09/10 13:02:54;;;;;;;6.57;3.72;;;;;;;;;;4997041;28;20065;-79
2023/09/10 13:05:19;;;;;;;7.22;4.03;;;;;;;;;;4997336;28;20117;-78
2023/09/10 13:07:45;;;;;;;7.90;3.80;;;;;;;;;;4981342;28;20069;-78
2023/09/10 13:10:11;;;;;;;5.30;3.90;;;;;;;;;;5000234;28;20505;-78
2023/09/10 13:12:37;;;;;;;6.05;3.70;;;;;;;;;;4981110;28;20022;-78
2023/09/10 13:15:03;;;;;;;5.97;3.95;;;;;;;;;;4998413;28;20153;-78
2023/09/10 13:17:29;;;;;;;5.70;3.80;;;;;;;;;;4996898;28;20030;-78
2023/09/10 13:19:54;;;;;;;5.88;4.10;;;;;;;;;;4997593;28;20030;-78
2023/09/10 13:22:19;;;;;;;6.18;3.72;;;;;;;;;;4997562;28;20062;-78
2023/09/10 13:24:45;;;;;;;6.67;3.40;;;;;;;;;;4997882;28;20053;-76
2023/09/10 13:27:10;;;;;;;5.73;3.67;;;;;;;;;;4979809;28;20256;-76
2023/09/10 13:29:35;;;;;;;7.97;3.95;;;;;;;;;;4979166;28;20837;-76
2023/09/10 13:32:01;;;;;;;8.25;3.88;;;;;;;;;;4979108;28;20037;-76
2023/09/10 13:34:26;;;;;;;6.25;3.85;;;;;;;;;;4979221;28;20026;-75
2023/09/10 13:36:52;;;;;;;6.70;3.75;;;;;;;;;;4979225;28;20026;-76
2023/09/10 13:39:17;;;;;;;6.43;3.80;;;;;;;;;;4978918;28;20048;-76
2023/09/10 13:41:42;;;;;;;4.53;3.22;;;;;;;;;;4979398;28;20296;-76
2023/09/10 13:44:07;;;;;;;5.67;3.60;;;;;;;;;;4996820;28;20121;-76
2023/09/10 13:46:34;;;;;;;4.60;3.42;;;;;;;;;;4996893;28;20318;-77
2023/09/10 13:48:59;;;;;;;4.28;3.13;;;;;;;;;;4996849;28;20101;-75
2023/09/10 13:51:25;;;;;;;6.80;3.83;;;;;;;;;;4997120;28;20054;-76
2023/09/10 13:53:50;;;;;;;4.77;3.57;;;;;;;;;;4996870;28;20026;-76
2023/09/10 13:56:15;;;;;;;4.53;3.60;;;;;;;;;;4996562;28;20260;-76
2023/09/10 13:58:40;;;;;;;4.30;3.45;;;;;;;;;;4996974;28;20255;-76
2023/09/10 14:01:07;;;;;;;3.93;3.37;;;;;;;;;;4997181;28;20056;-75
2023/09/10 14:03:36;;;;;;;4.88;3.75;;;;;;;;;;4978928;28;20314;-76
2023/09/10 14:06:03;;;;;;;7.22;3.70;;;;;;;;;;4979171;28;20060;-76
2023/09/10 14:08:28;;;;;;;7.45;3.50;;;;;;;;;;4997133;28;20061;-76
2023/09/10 14:10:53;;;;;;;7.28;4.00;;;;;;;;;;4997540;28;20046;-74
2023/09/10 14:13:19;;;;;;;7.70;3.90;;;;;;;;;;4996589;28;20100;-76
2023/09/10 14:15:44;;;;;;;6.85;3.88;;;;;;;;;;4979320;28;20271;-76
2023/09/10 14:18:10;;;;;;;6.53;3.70;;;;;;;;;;4995862;28;20085;-75
2023/09/10 14:20:36;;;;;;;41.92;23.35;;;;;;;;;;4996244;28;20029;-76
2023/09/10 14:23:02;;;;;;;5.60;4.28;;;;;;;;;;4995970;28;20034;-76
2023/09/10 14:25:29;;;;;;;6.85;4.20;;;;;;;;;;4995610;28;20081;-76
2023/09/10 14:27:54;;;;;;;6.70;3.92;;;;;;;;;;4995816;28;20034;-76
2023/09/10 14:30:19;;;;;;;6.28;3.70;;;;;;;;;;4996407;28;20030;-75
2023/09/10 14:32:45;;;;;;;5.47;3.47;;;;;;;;;;4995653;28;20022;-77
2023/09/10 14:35:10;;;;;;;5.50;3.80;;;;;;;;;;4978256;28;20276;-76
2023/09/10 14:37:35;;;;;;;10.55;3.70;;;;;;;;;;4978231;28;20030;-76
2023/09/10 14:40:04;;;;;;;4.30;3.75;;;;;;;;;;4996040;28;20052;-77